ROMMA est une association bénévole à but non lucratif. Votre soutien est indispensable : ADHERER à ROMMA ou FAIRE un DON

Observatoire Astro des Bauges - (73, Savoie)

Parc Naturel Régional des Bauges (1300 m)   Longitude: 06° 01' 57" E   Latitude: 45° 40' 39" N Station romma n°110
 

Détail journalier du     <<     >>

Température Precipitation Humidité Pression Vent Dir Rafale Dir. rafale Ensol.
Heure (°C) (mm) (%) (hPa) (km/h) (km/h) (min)
01:00 -2.608910223NO16ONO0
02:00 -2.508710221NNO15NNO0
03:00 -3.409010224NO15NO0
04:00 -3.809110224NO13NO0
05:00 -4.309110223NO16ONO0
06:00 -4.809210221NO10NO0
07:00 -4.609310223NO8NO0
08:00 -1.908710231NO8NO30
09:00 0.808010231NNO13NNO60
10:00 1.507510242S13SSE60
11:00 0.407810243NE15SSE60
12:00 0.307910243NNE18NO10
13:00 1.107510247NNO19NNO0
14:00 1.9072102412NNO26NO30
15:00 1.9067102412NNO27NO40
16:00 2.206510249NNO23NO50
17:00 2.406610256NNO23NNO20
18:00 0.8070102511NNO29NNO10
19:00 -0.2074102610NNO26NO20
20:00 -1.107810267NO16ONO0
21:00
22:00
23:00
minuit

Graphique du 19-03-2019

 

Serveur OMMA